sensor_id;sensor_type;location;lat;lon;timestamp;P1;durP1;ratioP1;P2;durP2;ratioP2
11535;SDS011;5824;49.336;8.652;2024-03-06T00:00:46;13.60;;;7.00;;
11535;SDS011;5824;49.336;8.652;2024-03-06T00:03:12;8.00;;;5.33;;
11535;SDS011;5824;49.336;8.652;2024-03-06T00:05:37;10.77;;;5.63;;
11535;SDS011;5824;49.336;8.652;2024-03-06T00:08:03;12.23;;;6.83;;
11535;SDS011;5824;49.336;8.652;2024-03-06T00:10:29;10.10;;;6.47;;
11535;SDS011;5824;49.336;8.652;2024-03-06T00:12:55;11.43;;;5.97;;
11535;SDS011;5824;49.336;8.652;2024-03-06T00:15:20;11.90;;;6.00;;
11535;SDS011;5824;49.336;8.652;2024-03-06T00:17:46;15.30;;;6.57;;
11535;SDS011;5824;49.336;8.652;2024-03-06T00:20:11;10.53;;;6.13;;
11535;SDS011;5824;49.336;8.652;2024-03-06T00:22:37;11.53;;;6.03;;
11535;SDS011;5824;49.336;8.652;2024-03-06T00:25:02;8.97;;;6.50;;
11535;SDS011;5824;49.336;8.652;2024-03-06T00:27:28;8.97;;;6.10;;
11535;SDS011;5824;49.336;8.652;2024-03-06T00:29:54;8.20;;;6.00;;
11535;SDS011;5824;49.336;8.652;2024-03-06T00:32:19;9.10;;;6.07;;
11535;SDS011;5824;49.336;8.652;2024-03-06T00:34:45;7.80;;;5.70;;
11535;SDS011;5824;49.336;8.652;2024-03-06T00:37:10;10.57;;;6.30;;
11535;SDS011;5824;49.336;8.652;2024-03-06T00:39:36;8.13;;;5.73;;
11535;SDS011;5824;49.336;8.652;2024-03-06T00:42:02;10.77;;;6.50;;
11535;SDS011;5824;49.336;8.652;2024-03-06T00:44:27;12.80;;;6.10;;
11535;SDS011;5824;49.336;8.652;2024-03-06T00:46:53;11.77;;;6.17;;
11535;SDS011;5824;49.336;8.652;2024-03-06T00:49:18;12.17;;;6.50;;
11535;SDS011;5824;49.336;8.652;2024-03-06T00:51:44;8.90;;;5.40;;
11535;SDS011;5824;49.336;8.652;2024-03-06T00:54:09;10.50;;;6.40;;
11535;SDS011;5824;49.336;8.652;2024-03-06T00:56:38;8.43;;;5.50;;
11535;SDS011;5824;49.336;8.652;2024-03-06T00:59:04;11.70;;;6.30;;
11535;SDS011;5824;49.336;8.652;2024-03-06T01:01:30;10.57;;;6.10;;
11535;SDS011;5824;49.336;8.652;2024-03-06T01:03:55;9.20;;;6.13;;
11535;SDS011;5824;49.336;8.652;2024-03-06T01:06:21;8.80;;;6.03;;
11535;SDS011;5824;49.336;8.652;2024-03-06T01:08:46;9.57;;;5.63;;
11535;SDS011;5824;49.336;8.652;2024-03-06T01:11:12;11.70;;;6.60;;
11535;SDS011;5824;49.336;8.652;2024-03-06T01:13:39;8.73;;;5.47;;
11535;SDS011;5824;49.336;8.652;2024-03-06T01:16:05;8.93;;;6.03;;
11535;SDS011;5824;49.336;8.652;2024-03-06T01:18:31;9.57;;;6.60;;
11535;SDS011;5824;49.336;8.652;2024-03-06T01:20:56;11.33;;;6.10;;
11535;SDS011;5824;49.336;8.652;2024-03-06T01:23:22;11.60;;;6.83;;
11535;SDS011;5824;49.336;8.652;2024-03-06T01:25:47;10.50;;;6.60;;
11535;SDS011;5824;49.336;8.652;2024-03-06T01:28:13;9.73;;;6.60;;
11535;SDS011;5824;49.336;8.652;2024-03-06T01:30:38;10.47;;;6.50;;
11535;SDS011;5824;49.336;8.652;2024-03-06T01:33:04;9.60;;;5.93;;
11535;SDS011;5824;49.336;8.652;2024-03-06T01:35:30;11.40;;;6.47;;
11535;SDS011;5824;49.336;8.652;2024-03-06T01:37:55;12.03;;;6.37;;
11535;SDS011;5824;49.336;8.652;2024-03-06T01:40:21;6.87;;;5.90;;
11535;SDS011;5824;49.336;8.652;2024-03-06T01:42:46;9.90;;;5.87;;
11535;SDS011;5824;49.336;8.652;2024-03-06T01:45:16;7.80;;;6.40;;
11535;SDS011;5824;49.336;8.652;2024-03-06T01:47:42;16.50;;;6.80;;
11535;SDS011;5824;49.336;8.652;2024-03-06T01:50:07;11.67;;;6.93;;
11535;SDS011;5824;49.336;8.652;2024-03-06T01:52:35;10.03;;;6.00;;
11535;SDS011;5824;49.336;8.652;2024-03-06T01:55:02;13.20;;;6.93;;
11535;SDS011;5824;49.336;8.652;2024-03-06T01:57:30;10.57;;;6.23;;
11535;SDS011;5824;49.336;8.652;2024-03-06T01:59:56;12.80;;;6.10;;
11535;SDS011;5824;49.336;8.652;2024-03-06T02:02:21;11.90;;;6.03;;
11535;SDS011;5824;49.336;8.652;2024-03-06T02:04:47;10.87;;;5.67;;
11535;SDS011;5824;49.336;8.652;2024-03-06T02:07:13;11.10;;;6.50;;
11535;SDS011;5824;49.336;8.652;2024-03-06T02:09:41;11.70;;;6.37;;
11535;SDS011;5824;49.336;8.652;2024-03-06T02:12:06;9.43;;;6.50;;
11535;SDS011;5824;49.336;8.652;2024-03-06T02:14:35;8.93;;;5.77;;
11535;SDS011;5824;49.336;8.652;2024-03-06T02:17:01;8.37;;;5.57;;
11535;SDS011;5824;49.336;8.652;2024-03-06T02:19:37;8.07;;;6.03;;
11535;SDS011;5824;49.336;8.652;2024-03-06T02:22:03;9.07;;;6.10;;
11535;SDS011;5824;49.336;8.652;2024-03-06T02:24:29;10.60;;;5.87;;
11535;SDS011;5824;49.336;8.652;2024-03-06T02:26:55;9.47;;;6.40;;
11535;SDS011;5824;49.336;8.652;2024-03-06T02:29:23;11.00;;;6.03;;
11535;SDS011;5824;49.336;8.652;2024-03-06T02:31:48;15.10;;;6.40;;
11535;SDS011;5824;49.336;8.652;2024-03-06T02:34:14;10.17;;;6.20;;
11535;SDS011;5824;49.336;8.652;2024-03-06T02:36:39;10.00;;;5.80;;
11535;SDS011;5824;49.336;8.652;2024-03-06T02:39:05;13.53;;;6.77;;
11535;SDS011;5824;49.336;8.652;2024-03-06T02:41:34;8.93;;;6.10;;
11535;SDS011;5824;49.336;8.652;2024-03-06T02:44:01;11.67;;;5.87;;
11535;SDS011;5824;49.336;8.652;2024-03-06T02:46:27;9.23;;;6.23;;
11535;SDS011;5824;49.336;8.652;2024-03-06T02:48:53;12.70;;;6.50;;
11535;SDS011;5824;49.336;8.652;2024-03-06T02:51:19;9.90;;;6.27;;
11535;SDS011;5824;49.336;8.652;2024-03-06T02:53:45;9.23;;;6.20;;
11535;SDS011;5824;49.336;8.652;2024-03-06T02:56:17;11.73;;;6.47;;
11535;SDS011;5824;49.336;8.652;2024-03-06T02:58:43;9.20;;;6.07;;
11535;SDS011;5824;49.336;8.652;2024-03-06T03:01:09;8.90;;;6.13;;
11535;SDS011;5824;49.336;8.652;2024-03-06T03:03:35;14.60;;;7.10;;
11535;SDS011;5824;49.336;8.652;2024-03-06T03:06:01;10.17;;;6.73;;
11535;SDS011;5824;49.336;8.652;2024-03-06T03:08:26;9.60;;;6.83;;
11535;SDS011;5824;49.336;8.652;2024-03-06T03:10:52;11.13;;;6.47;;
11535;SDS011;5824;49.336;8.652;2024-03-06T03:13:17;8.60;;;5.93;;
11535;SDS011;5824;49.336;8.652;2024-03-06T03:15:43;9.17;;;7.00;;
11535;SDS011;5824;49.336;8.652;2024-03-06T03:18:08;9.80;;;6.40;;
11535;SDS011;5824;49.336;8.652;2024-03-06T03:20:34;11.43;;;6.50;;
11535;SDS011;5824;49.336;8.652;2024-03-06T03:23:01;9.23;;;5.90;;
11535;SDS011;5824;49.336;8.652;2024-03-06T03:25:27;9.43;;;7.43;;
11535;SDS011;5824;49.336;8.652;2024-03-06T03:27:52;11.20;;;6.63;;
11535;SDS011;5824;49.336;8.652;2024-03-06T03:30:17;8.87;;;6.63;;
11535;SDS011;5824;49.336;8.652;2024-03-06T03:32:46;14.97;;;6.57;;
11535;SDS011;5824;49.336;8.652;2024-03-06T03:35:12;12.23;;;6.80;;
11535;SDS011;5824;49.336;8.652;2024-03-06T03:37:38;9.20;;;7.10;;
11535;SDS011;5824;49.336;8.652;2024-03-06T03:40:04;11.70;;;7.17;;
11535;SDS011;5824;49.336;8.652;2024-03-06T03:42:30;11.30;;;7.50;;
11535;SDS011;5824;49.336;8.652;2024-03-06T03:44:56;12.43;;;6.77;;
11535;SDS011;5824;49.336;8.652;2024-03-06T03:47:21;11.97;;;7.20;;
11535;SDS011;5824;49.336;8.652;2024-03-06T03:49:47;10.13;;;7.13;;
11535;SDS011;5824;49.336;8.652;2024-03-06T03:52:12;11.17;;;7.00;;
11535;SDS011;5824;49.336;8.652;2024-03-06T03:54:39;10.73;;;7.00;;
11535;SDS011;5824;49.336;8.652;2024-03-06T03:57:05;11.63;;;6.87;;
11535;SDS011;5824;49.336;8.652;2024-03-06T03:59:31;13.20;;;7.53;;
11535;SDS011;5824;49.336;8.652;2024-03-06T04:01:57;11.70;;;7.80;;
11535;SDS011;5824;49.336;8.652;2024-03-06T04:04:23;15.30;;;7.70;;
11535;SDS011;5824;49.336;8.652;2024-03-06T04:06:49;11.03;;;7.00;;
11535;SDS011;5824;49.336;8.652;2024-03-06T04:09:14;10.93;;;7.17;;
11535;SDS011;5824;49.336;8.652;2024-03-06T04:11:40;12.57;;;7.83;;
11535;SDS011;5824;49.336;8.652;2024-03-06T04:14:05;11.43;;;7.40;;
11535;SDS011;5824;49.336;8.652;2024-03-06T04:16:31;14.30;;;7.47;;
11535;SDS011;5824;49.336;8.652;2024-03-06T04:18:57;11.60;;;7.30;;
11535;SDS011;5824;49.336;8.652;2024-03-06T04:21:23;17.43;;;8.27;;
11535;SDS011;5824;49.336;8.652;2024-03-06T04:23:48;13.93;;;8.00;;
11535;SDS011;5824;49.336;8.652;2024-03-06T04:26:14;13.83;;;8.20;;
11535;SDS011;5824;49.336;8.652;2024-03-06T04:28:40;15.03;;;8.33;;
11535;SDS011;5824;49.336;8.652;2024-03-06T04:31:05;11.40;;;8.13;;
11535;SDS011;5824;49.336;8.652;2024-03-06T04:33:31;13.43;;;7.83;;
11535;SDS011;5824;49.336;8.652;2024-03-06T04:35:56;10.50;;;7.33;;
11535;SDS011;5824;49.336;8.652;2024-03-06T04:38:22;14.77;;;9.73;;
11535;SDS011;5824;49.336;8.652;2024-03-06T04:40:47;12.17;;;8.67;;
11535;SDS011;5824;49.336;8.652;2024-03-06T04:43:13;18.00;;;9.90;;
11535;SDS011;5824;49.336;8.652;2024-03-06T04:45:38;17.20;;;9.80;;
11535;SDS011;5824;49.336;8.652;2024-03-06T04:48:04;13.60;;;9.53;;
11535;SDS011;5824;49.336;8.652;2024-03-06T04:50:30;12.57;;;8.83;;
11535;SDS011;5824;49.336;8.652;2024-03-06T04:52:56;12.30;;;8.90;;
11535;SDS011;5824;49.336;8.652;2024-03-06T04:55:21;13.63;;;10.07;;
11535;SDS011;5824;49.336;8.652;2024-03-06T04:57:47;12.10;;;9.10;;
11535;SDS011;5824;49.336;8.652;2024-03-06T05:00:14;16.33;;;11.13;;
11535;SDS011;5824;49.336;8.652;2024-03-06T05:02:40;16.10;;;11.00;;
11535;SDS011;5824;49.336;8.652;2024-03-06T05:05:07;16.07;;;12.03;;
11535;SDS011;5824;49.336;8.652;2024-03-06T05:07:33;14.27;;;10.60;;
11535;SDS011;5824;49.336;8.652;2024-03-06T05:09:59;15.73;;;10.67;;
11535;SDS011;5824;49.336;8.652;2024-03-06T05:12:25;17.20;;;10.60;;
11535;SDS011;5824;49.336;8.652;2024-03-06T05:14:51;14.07;;;10.17;;
11535;SDS011;5824;49.336;8.652;2024-03-06T05:17:17;12.67;;;9.60;;
11535;SDS011;5824;49.336;8.652;2024-03-06T05:19:44;16.03;;;9.80;;
11535;SDS011;5824;49.336;8.652;2024-03-06T05:22:10;16.43;;;8.93;;
11535;SDS011;5824;49.336;8.652;2024-03-06T05:24:38;13.17;;;8.90;;
11535;SDS011;5824;49.336;8.652;2024-03-06T05:27:04;12.33;;;8.40;;
11535;SDS011;5824;49.336;8.652;2024-03-06T05:29:30;12.60;;;8.13;;
11535;SDS011;5824;49.336;8.652;2024-03-06T05:31:56;14.60;;;8.90;;
11535;SDS011;5824;49.336;8.652;2024-03-06T05:34:21;22.37;;;11.13;;
11535;SDS011;5824;49.336;8.652;2024-03-06T05:36:47;14.00;;;9.40;;
11535;SDS011;5824;49.336;8.652;2024-03-06T05:39:13;13.47;;;9.70;;
11535;SDS011;5824;49.336;8.652;2024-03-06T05:41:39;17.23;;;10.73;;
11535;SDS011;5824;49.336;8.652;2024-03-06T05:44:05;19.03;;;11.00;;
11535;SDS011;5824;49.336;8.652;2024-03-06T05:46:30;14.57;;;10.00;;
11535;SDS011;5824;49.336;8.652;2024-03-06T05:48:56;16.70;;;9.23;;
11535;SDS011;5824;49.336;8.652;2024-03-06T05:51:22;14.63;;;8.83;;
11535;SDS011;5824;49.336;8.652;2024-03-06T05:53:47;12.73;;;8.10;;
11535;SDS011;5824;49.336;8.652;2024-03-06T05:56:13;14.07;;;8.93;;
11535;SDS011;5824;49.336;8.652;2024-03-06T05:58:38;15.90;;;8.80;;
11535;SDS011;5824;49.336;8.652;2024-03-06T06:01:04;18.73;;;10.07;;
11535;SDS011;5824;49.336;8.652;2024-03-06T06:03:29;16.97;;;10.40;;
11535;SDS011;5824;49.336;8.652;2024-03-06T06:05:55;16.10;;;9.70;;
11535;SDS011;5824;49.336;8.652;2024-03-06T06:08:21;10.67;;;7.40;;
11535;SDS011;5824;49.336;8.652;2024-03-06T06:10:47;13.43;;;8.53;;
11535;SDS011;5824;49.336;8.652;2024-03-06T06:13:13;16.50;;;8.00;;
11535;SDS011;5824;49.336;8.652;2024-03-06T06:15:39;12.60;;;8.70;;
11535;SDS011;5824;49.336;8.652;2024-03-06T06:18:05;11.87;;;7.80;;
11535;SDS011;5824;49.336;8.652;2024-03-06T06:20:31;12.40;;;7.50;;
11535;SDS011;5824;49.336;8.652;2024-03-06T06:22:56;14.37;;;7.90;;
11535;SDS011;5824;49.336;8.652;2024-03-06T06:25:22;11.30;;;7.80;;
11535;SDS011;5824;49.336;8.652;2024-03-06T06:27:48;12.30;;;7.73;;
11535;SDS011;5824;49.336;8.652;2024-03-06T06:30:14;10.10;;;7.50;;
11535;SDS011;5824;49.336;8.652;2024-03-06T06:32:41;11.37;;;7.60;;
11535;SDS011;5824;49.336;8.652;2024-03-06T06:35:07;13.00;;;7.60;;
11535;SDS011;5824;49.336;8.652;2024-03-06T06:37:34;14.73;;;7.77;;
11535;SDS011;5824;49.336;8.652;2024-03-06T06:40:00;14.70;;;8.47;;
11535;SDS011;5824;49.336;8.652;2024-03-06T06:42:28;10.10;;;7.07;;
11535;SDS011;5824;49.336;8.652;2024-03-06T06:44:54;10.50;;;6.97;;
11535;SDS011;5824;49.336;8.652;2024-03-06T06:47:19;10.33;;;7.07;;
11535;SDS011;5824;49.336;8.652;2024-03-06T06:49:45;11.60;;;7.20;;
11535;SDS011;5824;49.336;8.652;2024-03-06T06:52:11;13.77;;;8.00;;
11535;SDS011;5824;49.336;8.652;2024-03-06T06:54:36;14.13;;;7.90;;
11535;SDS011;5824;49.336;8.652;2024-03-06T06:57:02;11.00;;;7.63;;
11535;SDS011;5824;49.336;8.652;2024-03-06T06:59:28;11.70;;;7.60;;
11535;SDS011;5824;49.336;8.652;2024-03-06T07:01:53;12.00;;;7.70;;
11535;SDS011;5824;49.336;8.652;2024-03-06T07:04:19;14.43;;;7.73;;
11535;SDS011;5824;49.336;8.652;2024-03-06T07:06:45;10.77;;;6.97;;
11535;SDS011;5824;49.336;8.652;2024-03-06T07:09:11;12.23;;;7.60;;
11535;SDS011;5824;49.336;8.652;2024-03-06T07:11:37;12.00;;;7.70;;
11535;SDS011;5824;49.336;8.652;2024-03-06T07:14:03;15.83;;;7.80;;
11535;SDS011;5824;49.336;8.652;2024-03-06T07:16:28;9.80;;;7.40;;
11535;SDS011;5824;49.336;8.652;2024-03-06T07:18:54;11.87;;;8.00;;
11535;SDS011;5824;49.336;8.652;2024-03-06T07:21:19;10.20;;;6.90;;
11535;SDS011;5824;49.336;8.652;2024-03-06T07:23:44;14.00;;;7.80;;
11535;SDS011;5824;49.336;8.652;2024-03-06T07:26:10;11.23;;;7.53;;
11535;SDS011;5824;49.336;8.652;2024-03-06T07:28:35;13.90;;;8.30;;
11535;SDS011;5824;49.336;8.652;2024-03-06T07:31:02;11.57;;;8.10;;
11535;SDS011;5824;49.336;8.652;2024-03-06T07:33:28;13.70;;;8.43;;
11535;SDS011;5824;49.336;8.652;2024-03-06T07:35:54;14.23;;;8.03;;
11535;SDS011;5824;49.336;8.652;2024-03-06T07:38:19;12.07;;;7.63;;
11535;SDS011;5824;49.336;8.652;2024-03-06T07:40:45;12.97;;;8.03;;
11535;SDS011;5824;49.336;8.652;2024-03-06T07:43:11;12.63;;;7.67;;
11535;SDS011;5824;49.336;8.652;2024-03-06T07:45:37;12.20;;;8.10;;
11535;SDS011;5824;49.336;8.652;2024-03-06T07:51:24;10.53;;;7.70;;
11535;SDS011;5824;49.336;8.652;2024-03-06T07:53:50;14.60;;;9.30;;
11535;SDS011;5824;49.336;8.652;2024-03-06T07:56:15;14.20;;;8.50;;
11535;SDS011;5824;49.336;8.652;2024-03-06T07:58:41;11.53;;;8.50;;
11535;SDS011;5824;49.336;8.652;2024-03-06T08:01:06;15.20;;;8.20;;
11535;SDS011;5824;49.336;8.652;2024-03-06T08:03:32;18.80;;;9.30;;
11535;SDS011;5824;49.336;8.652;2024-03-06T08:05:59;13.30;;;8.97;;
11535;SDS011;5824;49.336;8.652;2024-03-06T08:08:25;13.10;;;9.20;;
11535;SDS011;5824;49.336;8.652;2024-03-06T08:10:50;15.00;;;8.50;;
11535;SDS011;5824;49.336;8.652;2024-03-06T08:13:16;13.23;;;8.70;;
11535;SDS011;5824;49.336;8.652;2024-03-06T08:15:44;17.13;;;9.80;;
11535;SDS011;5824;49.336;8.652;2024-03-06T08:18:09;17.70;;;8.50;;
11535;SDS011;5824;49.336;8.652;2024-03-06T08:20:36;14.53;;;9.23;;
11535;SDS011;5824;49.336;8.652;2024-03-06T08:23:02;12.40;;;8.17;;
11535;SDS011;5824;49.336;8.652;2024-03-06T08:25:27;16.63;;;8.50;;
11535;SDS011;5824;49.336;8.652;2024-03-06T08:27:53;13.83;;;8.20;;
11535;SDS011;5824;49.336;8.652;2024-03-06T08:30:19;12.90;;;7.80;;
11535;SDS011;5824;49.336;8.652;2024-03-06T08:32:44;15.90;;;8.60;;
11535;SDS011;5824;49.336;8.652;2024-03-06T08:35:11;15.17;;;9.93;;
11535;SDS011;5824;49.336;8.652;2024-03-06T08:37:38;15.70;;;9.13;;
11535;SDS011;5824;49.336;8.652;2024-03-06T08:40:04;17.27;;;8.83;;
11535;SDS011;5824;49.336;8.652;2024-03-06T08:42:30;13.00;;;8.57;;
11535;SDS011;5824;49.336;8.652;2024-03-06T08:44:56;13.87;;;8.23;;
11535;SDS011;5824;49.336;8.652;2024-03-06T08:47:22;12.20;;;8.80;;
11535;SDS011;5824;49.336;8.652;2024-03-06T08:49:48;14.77;;;9.20;;
11535;SDS011;5824;49.336;8.652;2024-03-06T08:52:13;16.37;;;9.27;;
11535;SDS011;5824;49.336;8.652;2024-03-06T08:54:41;16.30;;;9.97;;
11535;SDS011;5824;49.336;8.652;2024-03-06T08:57:07;14.17;;;8.70;;
11535;SDS011;5824;49.336;8.652;2024-03-06T08:59:34;15.90;;;8.80;;
11535;SDS011;5824;49.336;8.652;2024-03-06T09:02:11;14.60;;;9.37;;
11535;SDS011;5824;49.336;8.652;2024-03-06T09:04:39;17.43;;;9.33;;
11535;SDS011;5824;49.336;8.652;2024-03-06T09:07:05;16.67;;;9.10;;
11535;SDS011;5824;49.336;8.652;2024-03-06T09:09:31;16.00;;;9.50;;
11535;SDS011;5824;49.336;8.652;2024-03-06T09:11:58;13.30;;;8.53;;
11535;SDS011;5824;49.336;8.652;2024-03-06T09:14:29;11.03;;;8.33;;
11535;SDS011;5824;49.336;8.652;2024-03-06T09:16:55;14.13;;;9.47;;
11535;SDS011;5824;49.336;8.652;2024-03-06T09:19:20;13.23;;;8.20;;
11535;SDS011;5824;49.336;8.652;2024-03-06T09:21:47;11.73;;;7.17;;
11535;SDS011;5824;49.336;8.652;2024-03-06T09:24:13;15.70;;;8.87;;
11535;SDS011;5824;49.336;8.652;2024-03-06T09:26:39;15.90;;;8.70;;
11535;SDS011;5824;49.336;8.652;2024-03-06T09:29:04;16.80;;;8.80;;
11535;SDS011;5824;49.336;8.652;2024-03-06T09:31:30;11.57;;;7.93;;
11535;SDS011;5824;49.336;8.652;2024-03-06T09:33:55;10.43;;;7.67;;
11535;SDS011;5824;49.336;8.652;2024-03-06T09:36:21;10.93;;;6.30;;
11535;SDS011;5824;49.336;8.652;2024-03-06T09:38:46;10.67;;;6.57;;
11535;SDS011;5824;49.336;8.652;2024-03-06T09:41:12;11.73;;;6.83;;
11535;SDS011;5824;49.336;8.652;2024-03-06T09:43:38;14.73;;;7.50;;
11535;SDS011;5824;49.336;8.652;2024-03-06T09:46:06;9.63;;;5.87;;
11535;SDS011;5824;49.336;8.652;2024-03-06T09:48:31;8.77;;;5.13;;
11535;SDS011;5824;49.336;8.652;2024-03-06T09:51:00;10.97;;;5.70;;
11535;SDS011;5824;49.336;8.652;2024-03-06T09:53:29;7.33;;;4.80;;
11535;SDS011;5824;49.336;8.652;2024-03-06T09:55:56;8.03;;;5.23;;
11535;SDS011;5824;49.336;8.652;2024-03-06T09:58:23;8.63;;;5.70;;
11535;SDS011;5824;49.336;8.652;2024-03-06T10:00:49;9.93;;;5.07;;
11535;SDS011;5824;49.336;8.652;2024-03-06T10:03:16;9.50;;;5.33;;
11535;SDS011;5824;49.336;8.652;2024-03-06T10:05:41;9.27;;;5.50;;
11535;SDS011;5824;49.336;8.652;2024-03-06T10:08:08;14.90;;;5.30;;
11535;SDS011;5824;49.336;8.652;2024-03-06T10:10:35;10.07;;;5.90;;
11535;SDS011;5824;49.336;8.652;2024-03-06T10:13:01;10.73;;;5.70;;
11535;SDS011;5824;49.336;8.652;2024-03-06T10:15:27;11.33;;;6.50;;
11535;SDS011;5824;49.336;8.652;2024-03-06T10:20:56;9.63;;;6.50;;
11535;SDS011;5824;49.336;8.652;2024-03-06T10:23:21;9.83;;;6.30;;
11535;SDS011;5824;49.336;8.652;2024-03-06T10:25:47;10.43;;;6.23;;
11535;SDS011;5824;49.336;8.652;2024-03-06T10:28:20;9.13;;;6.17;;
11535;SDS011;5824;49.336;8.652;2024-03-06T10:30:50;10.40;;;6.30;;
11535;SDS011;5824;49.336;8.652;2024-03-06T10:33:17;9.10;;;5.70;;
11535;SDS011;5824;49.336;8.652;2024-03-06T10:35:44;7.50;;;5.67;;
11535;SDS011;5824;49.336;8.652;2024-03-06T10:38:11;9.20;;;6.30;;
11535;SDS011;5824;49.336;8.652;2024-03-06T10:40:37;10.13;;;6.20;;
11535;SDS011;5824;49.336;8.652;2024-03-06T10:43:06;10.47;;;6.00;;
11535;SDS011;5824;49.336;8.652;2024-03-06T10:45:40;10.73;;;6.07;;
11535;SDS011;5824;49.336;8.652;2024-03-06T10:48:11;9.73;;;6.60;;
11535;SDS011;5824;49.336;8.652;2024-03-06T10:50:39;16.90;;;7.27;;
11535;SDS011;5824;49.336;8.652;2024-03-06T10:53:08;9.90;;;6.60;;
11535;SDS011;5824;49.336;8.652;2024-03-06T10:55:35;11.03;;;6.60;;
11535;SDS011;5824;49.336;8.652;2024-03-06T10:58:01;11.70;;;6.87;;
11535;SDS011;5824;49.336;8.652;2024-03-06T11:00:30;12.53;;;7.70;;
11535;SDS011;5824;49.336;8.652;2024-03-06T11:02:55;16.73;;;8.73;;
11535;SDS011;5824;49.336;8.652;2024-03-06T11:05:23;12.40;;;7.47;;
11535;SDS011;5824;49.336;8.652;2024-03-06T11:07:49;11.43;;;7.00;;
11535;SDS011;5824;49.336;8.652;2024-03-06T11:10:29;10.73;;;7.47;;
11535;SDS011;5824;49.336;8.652;2024-03-06T11:12:55;13.00;;;7.47;;
11535;SDS011;5824;49.336;8.652;2024-03-06T11:15:21;15.20;;;8.70;;
11535;SDS011;5824;49.336;8.652;2024-03-06T11:17:47;11.00;;;6.07;;
11535;SDS011;5824;49.336;8.652;2024-03-06T11:20:17;11.43;;;7.30;;
11535;SDS011;5824;49.336;8.652;2024-03-06T11:26:09;11.37;;;7.83;;
11535;SDS011;5824;49.336;8.652;2024-03-06T11:33:34;18.20;;;9.77;;
11535;SDS011;5824;49.336;8.652;2024-03-06T11:36:16;15.77;;;9.83;;
11535;SDS011;5824;49.336;8.652;2024-03-06T11:39:08;16.60;;;8.67;;
11535;SDS011;5824;49.336;8.652;2024-03-06T11:44:17;16.13;;;9.77;;
11535;SDS011;5824;49.336;8.652;2024-03-06T11:46:48;17.10;;;10.30;;
11535;SDS011;5824;49.336;8.652;2024-03-06T11:49:28;17.30;;;10.43;;
11535;SDS011;5824;49.336;8.652;2024-03-06T11:52:01;14.03;;;9.63;;
11535;SDS011;5824;49.336;8.652;2024-03-06T11:54:29;14.37;;;8.87;;
11535;SDS011;5824;49.336;8.652;2024-03-06T11:56:58;14.23;;;9.63;;
11535;SDS011;5824;49.336;8.652;2024-03-06T11:59:24;13.63;;;8.83;;
11535;SDS011;5824;49.336;8.652;2024-03-06T12:01:51;13.67;;;9.67;;
11535;SDS011;5824;49.336;8.652;2024-03-06T12:04:18;15.40;;;9.03;;
11535;SDS011;5824;49.336;8.652;2024-03-06T12:06:45;18.50;;;10.80;;
11535;SDS011;5824;49.336;8.652;2024-03-06T12:09:11;12.50;;;8.97;;
11535;SDS011;5824;49.336;8.652;2024-03-06T12:11:37;12.80;;;8.10;;
11535;SDS011;5824;49.336;8.652;2024-03-06T12:14:03;15.63;;;9.60;;
11535;SDS011;5824;49.336;8.652;2024-03-06T12:16:29;15.33;;;9.10;;
11535;SDS011;5824;49.336;8.652;2024-03-06T12:18:58;15.47;;;9.23;;
11535;SDS011;5824;49.336;8.652;2024-03-06T12:21:33;16.27;;;10.30;;
11535;SDS011;5824;49.336;8.652;2024-03-06T12:24:05;14.77;;;9.47;;
11535;SDS011;5824;49.336;8.652;2024-03-06T12:26:32;14.90;;;9.60;;
11535;SDS011;5824;49.336;8.652;2024-03-06T12:29:07;15.47;;;9.50;;
11535;SDS011;5824;49.336;8.652;2024-03-06T12:31:34;16.20;;;9.67;;
11535;SDS011;5824;49.336;8.652;2024-03-06T12:34:01;16.20;;;9.10;;
11535;SDS011;5824;49.336;8.652;2024-03-06T12:36:28;14.87;;;9.10;;
11535;SDS011;5824;49.336;8.652;2024-03-06T12:38:55;15.77;;;8.90;;
11535;SDS011;5824;49.336;8.652;2024-03-06T12:41:21;15.70;;;9.93;;
11535;SDS011;5824;49.336;8.652;2024-03-06T12:43:47;13.67;;;9.37;;
11535;SDS011;5824;49.336;8.652;2024-03-06T12:46:12;16.90;;;9.80;;
11535;SDS011;5824;49.336;8.652;2024-03-06T12:48:38;19.97;;;10.70;;
11535;SDS011;5824;49.336;8.652;2024-03-06T12:51:03;16.33;;;9.33;;
11535;SDS011;5824;49.336;8.652;2024-03-06T12:53:32;14.50;;;9.63;;
11535;SDS011;5824;49.336;8.652;2024-03-06T12:55:59;13.90;;;9.40;;
11535;SDS011;5824;49.336;8.652;2024-03-06T12:58:25;14.10;;;9.20;;
11535;SDS011;5824;49.336;8.652;2024-03-06T13:00:51;14.70;;;9.23;;
11535;SDS011;5824;49.336;8.652;2024-03-06T13:03:17;16.70;;;9.23;;
11535;SDS011;5824;49.336;8.652;2024-03-06T13:05:43;15.13;;;9.50;;
11535;SDS011;5824;49.336;8.652;2024-03-06T13:08:08;14.67;;;8.90;;
11535;SDS011;5824;49.336;8.652;2024-03-06T13:10:39;14.23;;;9.37;;
11535;SDS011;5824;49.336;8.652;2024-03-06T13:13:04;14.93;;;9.10;;
11535;SDS011;5824;49.336;8.652;2024-03-06T13:15:31;16.30;;;9.60;;
11535;SDS011;5824;49.336;8.652;2024-03-06T13:17:59;17.77;;;9.90;;
11535;SDS011;5824;49.336;8.652;2024-03-06T13:20:28;16.43;;;9.73;;
11535;SDS011;5824;49.336;8.652;2024-03-06T13:22:54;13.83;;;9.40;;
11535;SDS011;5824;49.336;8.652;2024-03-06T13:25:19;17.00;;;9.27;;
11535;SDS011;5824;49.336;8.652;2024-03-06T13:27:45;16.87;;;10.20;;
11535;SDS011;5824;49.336;8.652;2024-03-06T13:30:11;19.60;;;10.87;;
11535;SDS011;5824;49.336;8.652;2024-03-06T13:32:37;13.90;;;9.27;;
11535;SDS011;5824;49.336;8.652;2024-03-06T13:35:03;16.47;;;10.00;;
11535;SDS011;5824;49.336;8.652;2024-03-06T13:37:31;14.17;;;9.90;;
11535;SDS011;5824;49.336;8.652;2024-03-06T13:39:57;17.67;;;10.57;;
11535;SDS011;5824;49.336;8.652;2024-03-06T13:42:26;16.63;;;10.30;;
11535;SDS011;5824;49.336;8.652;2024-03-06T13:44:52;19.97;;;10.90;;
11535;SDS011;5824;49.336;8.652;2024-03-06T13:47:18;18.27;;;11.10;;
11535;SDS011;5824;49.336;8.652;2024-03-06T13:49:44;18.97;;;11.80;;
11535;SDS011;5824;49.336;8.652;2024-03-06T13:52:09;18.47;;;10.97;;
11535;SDS011;5824;49.336;8.652;2024-03-06T13:54:39;18.60;;;10.47;;
11535;SDS011;5824;49.336;8.652;2024-03-06T13:57:06;17.63;;;10.53;;
11535;SDS011;5824;49.336;8.652;2024-03-06T13:59:33;17.97;;;10.90;;
11535;SDS011;5824;49.336;8.652;2024-03-06T14:01:59;20.53;;;10.40;;
11535;SDS011;5824;49.336;8.652;2024-03-06T14:04:25;16.10;;;10.27;;
11535;SDS011;5824;49.336;8.652;2024-03-06T14:06:51;17.73;;;11.17;;
11535;SDS011;5824;49.336;8.652;2024-03-06T14:09:17;20.00;;;11.10;;
11535;SDS011;5824;49.336;8.652;2024-03-06T14:11:43;17.90;;;11.03;;
11535;SDS011;5824;49.336;8.652;2024-03-06T14:14:09;17.70;;;10.63;;
11535;SDS011;5824;49.336;8.652;2024-03-06T14:16:34;17.40;;;9.77;;
11535;SDS011;5824;49.336;8.652;2024-03-06T14:19:00;17.97;;;11.10;;
11535;SDS011;5824;49.336;8.652;2024-03-06T14:21:26;19.60;;;10.57;;
11535;SDS011;5824;49.336;8.652;2024-03-06T14:23:51;20.13;;;11.10;;
11535;SDS011;5824;49.336;8.652;2024-03-06T14:26:17;20.03;;;11.00;;
11535;SDS011;5824;49.336;8.652;2024-03-06T14:28:43;20.03;;;11.70;;
11535;SDS011;5824;49.336;8.652;2024-03-06T14:31:08;20.73;;;10.60;;
11535;SDS011;5824;49.336;8.652;2024-03-06T14:33:37;18.13;;;10.83;;
11535;SDS011;5824;49.336;8.652;2024-03-06T14:36:04;16.97;;;10.40;;
11535;SDS011;5824;49.336;8.652;2024-03-06T14:38:30;19.30;;;10.80;;
11535;SDS011;5824;49.336;8.652;2024-03-06T14:40:55;17.67;;;10.80;;
11535;SDS011;5824;49.336;8.652;2024-03-06T14:43:21;18.80;;;11.40;;
11535;SDS011;5824;49.336;8.652;2024-03-06T14:45:46;19.80;;;11.30;;
11535;SDS011;5824;49.336;8.652;2024-03-06T14:48:12;20.10;;;12.03;;
11535;SDS011;5824;49.336;8.652;2024-03-06T14:50:37;22.17;;;11.87;;
11535;SDS011;5824;49.336;8.652;2024-03-06T14:53:03;19.43;;;11.80;;
11535;SDS011;5824;49.336;8.652;2024-03-06T14:55:30;19.83;;;12.30;;
11535;SDS011;5824;49.336;8.652;2024-03-06T14:57:56;18.73;;;12.40;;
11535;SDS011;5824;49.336;8.652;2024-03-06T15:00:21;22.53;;;13.27;;